sensor_id;sensor_type;location;lat;lon;timestamp;pressure;altitude;pressure_sealevel;temperature;humidity
21623;BME280;10973;46.706;12.340;2022-08-19T00:02:03;87160.66;;;17.40;62.49
21623;BME280;10973;46.706;12.340;2022-08-19T00:04:34;87169.09;;;17.39;62.69
21623;BME280;10973;46.706;12.340;2022-08-19T00:07:05;87178.97;;;17.38;62.84
21623;BME280;10973;46.706;12.340;2022-08-19T00:09:33;87183.91;;;17.40;62.89
21623;BME280;10973;46.706;12.340;2022-08-19T00:12:00;87177.06;;;17.39;63.12
21623;BME280;10973;46.706;12.340;2022-08-19T00:14:29;87170.22;;;17.38;63.13
21623;BME280;10973;46.706;12.340;2022-08-19T00:16:56;87178.75;;;17.33;62.95
21623;BME280;10973;46.706;12.340;2022-08-19T00:19:25;87181.81;;;17.31;63.13
21623;BME280;10973;46.706;12.340;2022-08-19T00:21:53;87181.06;;;17.31;62.97
21623;BME280;10973;46.706;12.340;2022-08-19T00:24:20;87176.47;;;17.31;63.14
21623;BME280;10973;46.706;12.340;2022-08-19T00:26:48;87166.56;;;17.32;63.17
21623;BME280;10973;46.706;12.340;2022-08-19T00:29:18;87147.94;;;17.32;63.11
21623;BME280;10973;46.706;12.340;2022-08-19T00:31:46;87135.78;;;17.31;63.25
21623;BME280;10973;46.706;12.340;2022-08-19T00:34:16;87137.84;;;17.23;63.10
21623;BME280;10973;46.706;12.340;2022-08-19T00:36:46;87153.09;;;17.23;62.79
21623;BME280;10973;46.706;12.340;2022-08-19T00:39:16;87156.06;;;17.25;62.99
21623;BME280;10973;46.706;12.340;2022-08-19T00:41:45;87157.97;;;17.24;63.16
21623;BME280;10973;46.706;12.340;2022-08-19T00:44:21;87157.97;;;17.24;62.97
21623;BME280;10973;46.706;12.340;2022-08-19T00:46:57;87166.81;;;17.21;63.11
21623;BME280;10973;46.706;12.340;2022-08-19T00:49:35;87162.06;;;17.13;62.69
21623;BME280;10973;46.706;12.340;2022-08-19T00:52:15;87170.38;;;17.15;62.80
21623;BME280;10973;46.706;12.340;2022-08-19T00:54:45;87183.69;;;17.15;62.95
21623;BME280;10973;46.706;12.340;2022-08-19T00:57:26;87190.84;;;17.18;63.29
21623;BME280;10973;46.706;12.340;2022-08-19T00:59:58;87187.03;;;17.19;62.95
21623;BME280;10973;46.706;12.340;2022-08-19T01:02:30;87189.03;;;17.15;63.02
21623;BME280;10973;46.706;12.340;2022-08-19T01:05:06;87204.16;;;17.18;63.03
21623;BME280;10973;46.706;12.340;2022-08-19T01:07:37;87218.66;;;17.17;63.71
21623;BME280;10973;46.706;12.340;2022-08-19T01:10:10;87223.22;;;17.16;63.81
21623;BME280;10973;46.706;12.340;2022-08-19T01:12:39;87229.31;;;17.17;63.63
21623;BME280;10973;46.706;12.340;2022-08-19T01:15:11;87226.66;;;17.17;63.79
21623;BME280;10973;46.706;12.340;2022-08-19T01:17:41;87235.44;;;17.13;63.56
21623;BME280;10973;46.706;12.340;2022-08-19T01:20:20;87239.63;;;17.15;63.16
21623;BME280;10973;46.706;12.340;2022-08-19T01:22:57;87238.09;;;17.13;63.36
21623;BME280;10973;46.706;12.340;2022-08-19T01:25:31;87243.84;;;17.12;63.41
21623;BME280;10973;46.706;12.340;2022-08-19T01:27:59;87252.19;;;17.14;63.53
21623;BME280;10973;46.706;12.340;2022-08-19T01:30:37;87261.66;;;17.15;63.60
21623;BME280;10973;46.706;12.340;2022-08-19T01:33:04;87256.75;;;17.13;63.68
21623;BME280;10973;46.706;12.340;2022-08-19T01:35:32;87261.66;;;17.15;63.72
21623;BME280;10973;46.706;12.340;2022-08-19T01:38:03;87250.66;;;17.13;63.87
21623;BME280;10973;46.706;12.340;2022-08-19T01:40:33;87240.78;;;17.13;63.65
21623;BME280;10973;46.706;12.340;2022-08-19T01:43:02;87235.78;;;17.16;63.64
21623;BME280;10973;46.706;12.340;2022-08-19T01:45:33;87226.38;;;17.11;63.67
21623;BME280;10973;46.706;12.340;2022-08-19T01:48:03;87216.56;;;17.08;63.53
21623;BME280;10973;46.706;12.340;2022-08-19T01:50:33;87204.81;;;17.05;63.65
21623;BME280;10973;46.706;12.340;2022-08-19T01:53:05;87202.16;;;17.05;63.91
21623;BME280;10973;46.706;12.340;2022-08-19T01:55:37;87191.91;;;17.04;63.97
21623;BME280;10973;46.706;12.340;2022-08-19T01:58:16;87182.81;;;17.01;64.31
21623;BME280;10973;46.706;12.340;2022-08-19T02:00:45;87169.94;;;17.00;63.90
21623;BME280;10973;46.706;12.340;2022-08-19T02:03:13;87168.34;;;17.02;63.95
21623;BME280;10973;46.706;12.340;2022-08-19T02:05:41;87162.28;;;17.02;63.99
21623;BME280;10973;46.706;12.340;2022-08-19T02:08:10;87161.88;;;17.03;64.20
21623;BME280;10973;46.706;12.340;2022-08-19T02:10:44;87162.69;;;17.00;64.29
21623;BME280;10973;46.706;12.340;2022-08-19T02:13:12;87152.09;;;16.97;64.32
21623;BME280;10973;46.706;12.340;2022-08-19T02:15:40;87157.84;;;16.95;63.97
21623;BME280;10973;46.706;12.340;2022-08-19T02:18:07;87161.94;;;17.00;63.93
21623;BME280;10973;46.706;12.340;2022-08-19T02:20:36;87160.78;;;17.01;63.97
21623;BME280;10973;46.706;12.340;2022-08-19T02:23:05;87164.19;;;17.01;63.90
21623;BME280;10973;46.706;12.340;2022-08-19T02:25:41;87182.81;;;17.01;63.86
21623;BME280;10973;46.706;12.340;2022-08-19T02:28:09;87199.22;;;17.00;63.93
21623;BME280;10973;46.706;12.340;2022-08-19T02:30:36;87210.28;;;16.98;63.95
21623;BME280;10973;46.706;12.340;2022-08-19T02:33:04;87202.63;;;17.00;64.10
21623;BME280;10973;46.706;12.340;2022-08-19T02:35:31;87199.63;;;16.98;64.48
21623;BME280;10973;46.706;12.340;2022-08-19T02:37:59;87195.47;;;16.97;64.57
21623;BME280;10973;46.706;12.340;2022-08-19T02:40:28;87200.78;;;16.97;64.32
21623;BME280;10973;46.706;12.340;2022-08-19T02:42:56;87211.84;;;16.96;64.42
21623;BME280;10973;46.706;12.340;2022-08-19T02:45:23;87223.97;;;16.97;64.27
21623;BME280;10973;46.706;12.340;2022-08-19T02:47:50;87228.91;;;16.98;64.34
21623;BME280;10973;46.706;12.340;2022-08-19T02:50:18;87227.41;;;16.97;64.44
21623;BME280;10973;46.706;12.340;2022-08-19T02:52:45;87246.03;;;16.97;64.54
21623;BME280;10973;46.706;12.340;2022-08-19T02:55:12;87245.28;;;16.97;64.54
21623;BME280;10973;46.706;12.340;2022-08-19T02:57:40;87236.47;;;17.00;64.68
21623;BME280;10973;46.706;12.340;2022-08-19T03:00:08;87229.59;;;17.02;64.41
21623;BME280;10973;46.706;12.340;2022-08-19T03:02:35;87238.66;;;17.05;64.40
21623;BME280;10973;46.706;12.340;2022-08-19T03:05:04;87237.16;;;17.04;64.35
21623;BME280;10973;46.706;12.340;2022-08-19T03:07:32;87240.56;;;17.04;64.29
21623;BME280;10973;46.706;12.340;2022-08-19T03:10:00;87231.44;;;17.05;64.05
21623;BME280;10973;46.706;12.340;2022-08-19T03:12:27;87231.78;;;17.07;64.09
21623;BME280;10973;46.706;12.340;2022-08-19T03:14:54;87221.81;;;16.92;64.37
21623;BME280;10973;46.706;12.340;2022-08-19T03:17:22;87222.97;;;16.91;64.29
21623;BME280;10973;46.706;12.340;2022-08-19T03:19:49;87220.59;;;16.96;64.26
21623;BME280;10973;46.706;12.340;2022-08-19T03:22:16;87212.28;;;16.94;64.53
21623;BME280;10973;46.706;12.340;2022-08-19T03:24:43;87212.66;;;16.93;64.69
21623;BME280;10973;46.706;12.340;2022-08-19T03:27:11;87207.41;;;16.89;64.78
21623;BME280;10973;46.706;12.340;2022-08-19T03:29:38;87212.00;;;16.89;64.83
21623;BME280;10973;46.706;12.340;2022-08-19T03:32:10;87217.31;;;16.89;64.58
21623;BME280;10973;46.706;12.340;2022-08-19T03:34:57;87226.06;;;16.89;64.69
21623;BME280;10973;46.706;12.340;2022-08-19T03:37:24;87228.28;;;16.91;64.65
21623;BME280;10973;46.706;12.340;2022-08-19T03:39:52;87223.31;;;16.93;64.96
21623;BME280;10973;46.706;12.340;2022-08-19T03:42:19;87219.69;;;16.83;65.17
21623;BME280;10973;46.706;12.340;2022-08-19T03:45:07;87232.19;;;16.86;64.85
21623;BME280;10973;46.706;12.340;2022-08-19T03:47:34;87231.78;;;16.88;64.68
21623;BME280;10973;46.706;12.340;2022-08-19T03:50:02;87229.88;;;16.88;65.04
21623;BME280;10973;46.706;12.340;2022-08-19T03:52:30;87229.53;;;16.86;64.73
21623;BME280;10973;46.706;12.340;2022-08-19T03:54:57;87238.28;;;16.87;64.91
21623;BME280;10973;46.706;12.340;2022-08-19T03:57:24;87235.19;;;16.88;64.90
21623;BME280;10973;46.706;12.340;2022-08-19T03:59:58;87243.59;;;16.87;65.07
21623;BME280;10973;46.706;12.340;2022-08-19T04:02:41;87226.44;;;16.88;65.28
21623;BME280;10973;46.706;12.340;2022-08-19T04:05:08;87221.50;;;16.90;64.96
21623;BME280;10973;46.706;12.340;2022-08-19T04:07:36;87199.09;;;16.87;65.11
21623;BME280;10973;46.706;12.340;2022-08-19T04:10:04;87209.00;;;16.87;65.31
21623;BME280;10973;46.706;12.340;2022-08-19T04:12:32;87185.84;;;16.84;65.15
21623;BME280;10973;46.706;12.340;2022-08-19T04:14:59;87172.97;;;16.82;65.28
21623;BME280;10973;46.706;12.340;2022-08-19T04:17:26;87179.38;;;16.85;65.20
21623;BME280;10973;46.706;12.340;2022-08-19T04:19:53;87200.59;;;16.88;64.96
21623;BME280;10973;46.706;12.340;2022-08-19T04:22:20;87202.09;;;16.89;64.98
21623;BME280;10973;46.706;12.340;2022-08-19T04:24:48;87200.91;;;16.90;65.20
21623;BME280;10973;46.706;12.340;2022-08-19T04:27:15;87207.81;;;16.88;65.11
21623;BME280;10973;46.706;12.340;2022-08-19T04:29:42;87203.25;;;16.88;65.08
21623;BME280;10973;46.706;12.340;2022-08-19T04:32:10;87210.09;;;16.89;64.71
21623;BME280;10973;46.706;12.340;2022-08-19T04:34:38;87207.00;;;16.91;64.56
21623;BME280;10973;46.706;12.340;2022-08-19T04:37:27;87220.41;;;16.87;64.71
21623;BME280;10973;46.706;12.340;2022-08-19T04:40:04;87195.69;;;16.87;64.74
21623;BME280;10973;46.706;12.340;2022-08-19T04:42:31;87170.97;;;16.86;64.67
21623;BME280;10973;46.706;12.340;2022-08-19T04:44:59;87155.75;;;16.87;64.53
21623;BME280;10973;46.706;12.340;2022-08-19T04:47:27;87127.25;;;16.87;64.69
21623;BME280;10973;46.706;12.340;2022-08-19T04:50:14;87102.25;;;16.81;64.72
21623;BME280;10973;46.706;12.340;2022-08-19T04:52:42;87106.00;;;16.84;64.45
21623;BME280;10973;46.706;12.340;2022-08-19T04:55:11;87071.41;;;16.84;64.76
21623;BME280;10973;46.706;12.340;2022-08-19T04:57:38;87046.31;;;16.85;64.75
21623;BME280;10973;46.706;12.340;2022-08-19T05:00:08;87025.34;;;16.87;64.75
21623;BME280;10973;46.706;12.340;2022-08-19T05:02:37;87026.16;;;16.84;64.85
21623;BME280;10973;46.706;12.340;2022-08-19T05:05:05;87037.56;;;16.84;64.33
21623;BME280;10973;46.706;12.340;2022-08-19T05:07:33;87035.72;;;16.81;64.33
21623;BME280;10973;46.706;12.340;2022-08-19T05:10:00;87050.59;;;16.79;64.48
21623;BME280;10973;46.706;12.340;2022-08-19T05:12:28;87066.19;;;16.80;64.82
21623;BME280;10973;46.706;12.340;2022-08-19T05:14:57;87079.81;;;16.82;64.69
21623;BME280;10973;46.706;12.340;2022-08-19T05:17:27;87076.06;;;16.80;64.09
21623;BME280;10973;46.706;12.340;2022-08-19T05:19:59;87061.34;;;16.75;63.68
21623;BME280;10973;46.706;12.340;2022-08-19T05:22:26;87065.16;;;16.74;63.71
21623;BME280;10973;46.706;12.340;2022-08-19T05:24:53;87040.47;;;16.74;63.62
21623;BME280;10973;46.706;12.340;2022-08-19T05:27:38;87034.31;;;16.77;63.58
21623;BME280;10973;46.706;12.340;2022-08-19T05:30:06;87046.94;;;16.73;63.84
21623;BME280;10973;46.706;12.340;2022-08-19T05:32:34;87084.94;;;16.73;64.34
21623;BME280;10973;46.706;12.340;2022-08-19T05:35:03;87105.81;;;16.75;64.32
21623;BME280;10973;46.706;12.340;2022-08-19T05:37:30;87119.97;;;16.72;64.72
21623;BME280;10973;46.706;12.340;2022-08-19T05:39:57;87112.81;;;16.69;63.73
21623;BME280;10973;46.706;12.340;2022-08-19T05:42:24;87096.41;;;16.70;63.43
21623;BME280;10973;46.706;12.340;2022-08-19T05:44:52;87075.41;;;16.76;63.03
21623;BME280;10973;46.706;12.340;2022-08-19T05:47:19;87082.63;;;16.75;63.21
21623;BME280;10973;46.706;12.340;2022-08-19T05:49:50;87095.13;;;16.78;63.70
21623;BME280;10973;46.706;12.340;2022-08-19T05:52:19;87104.25;;;16.77;64.17
21623;BME280;10973;46.706;12.340;2022-08-19T05:54:53;87108.09;;;16.76;64.07
21623;BME280;10973;46.706;12.340;2022-08-19T05:57:21;87108.09;;;16.76;63.85
21623;BME280;10973;46.706;12.340;2022-08-19T05:59:49;87112.31;;;16.74;64.11
21623;BME280;10973;46.706;12.340;2022-08-19T06:02:28;87132.03;;;16.76;63.91
21623;BME280;10973;46.706;12.340;2022-08-19T06:04:56;87139.84;;;16.83;64.11
21623;BME280;10973;46.706;12.340;2022-08-19T06:07:23;87142.50;;;16.83;64.50
21623;BME280;10973;46.706;12.340;2022-08-19T06:09:50;87132.56;;;16.87;64.75
21623;BME280;10973;46.706;12.340;2022-08-19T06:12:31;87129.06;;;16.90;64.81
21623;BME280;10973;46.706;12.340;2022-08-19T06:15:02;87139.22;;;16.95;65.06
21623;BME280;10973;46.706;12.340;2022-08-19T06:17:31;87147.88;;;16.99;65.04
21623;BME280;10973;46.706;12.340;2022-08-19T06:19:59;87148.56;;;17.03;64.67
21623;BME280;10973;46.706;12.340;2022-08-19T06:22:27;87151.91;;;17.07;64.63
21623;BME280;10973;46.706;12.340;2022-08-19T06:24:56;87151.06;;;17.10;64.37
21623;BME280;10973;46.706;12.340;2022-08-19T06:27:23;87138.09;;;17.13;64.39
21623;BME280;10973;46.706;12.340;2022-08-19T06:29:50;87141.44;;;17.17;64.45
21623;BME280;10973;46.706;12.340;2022-08-19T06:32:18;87137.91;;;17.20;64.78
21623;BME280;10973;46.706;12.340;2022-08-19T06:34:46;87136.69;;;17.24;64.92
21623;BME280;10973;46.706;12.340;2022-08-19T06:37:14;87133.19;;;17.27;65.07
21623;BME280;10973;46.706;12.340;2022-08-19T06:39:44;87134.28;;;17.30;65.12
21623;BME280;10973;46.706;12.340;2022-08-19T06:42:12;87139.88;;;17.35;64.70
21623;BME280;10973;46.706;12.340;2022-08-19T06:44:43;87151.53;;;17.41;64.35
21623;BME280;10973;46.706;12.340;2022-08-19T06:47:20;87152.94;;;17.46;63.91
21623;BME280;10973;46.706;12.340;2022-08-19T06:49:55;87140.63;;;17.52;63.79
21623;BME280;10973;46.706;12.340;2022-08-19T06:52:28;87128.66;;;17.60;63.70
21623;BME280;10973;46.706;12.340;2022-08-19T06:54:55;87114.91;;;17.61;63.74
21623;BME280;10973;46.706;12.340;2022-08-19T06:57:26;87123.66;;;17.62;63.54
21623;BME280;10973;46.706;12.340;2022-08-19T06:59:53;87114.91;;;17.61;63.27
21623;BME280;10973;46.706;12.340;2022-08-19T07:02:20;87106.16;;;17.61;62.97
21623;BME280;10973;46.706;12.340;2022-08-19T07:04:48;87104.59;;;17.63;63.06
21623;BME280;10973;46.706;12.340;2022-08-19T07:07:20;87097.03;;;17.62;62.80
21623;BME280;10973;46.706;12.340;2022-08-19T07:09:52;87088.19;;;17.65;62.48
21623;BME280;10973;46.706;12.340;2022-08-19T07:12:30;87088.84;;;17.69;62.26
21623;BME280;10973;46.706;12.340;2022-08-19T07:14:58;87086.41;;;17.74;61.38
21623;BME280;10973;46.706;12.340;2022-08-19T07:17:27;87082.91;;;17.77;60.77
21623;BME280;10973;46.706;12.340;2022-08-19T07:19:54;87082.16;;;17.77;60.81
21623;BME280;10973;46.706;12.340;2022-08-19T07:22:22;87074.16;;;17.77;61.22
21623;BME280;10973;46.706;12.340;2022-08-19T07:24:51;87073.34;;;17.80;61.02
21623;BME280;10973;46.706;12.340;2022-08-19T07:27:19;87076.22;;;17.86;61.15
21623;BME280;10973;46.706;12.340;2022-08-19T07:29:55;87075.72;;;17.91;61.48
21623;BME280;10973;46.706;12.340;2022-08-19T07:32:26;87066.78;;;17.97;61.14
21623;BME280;10973;46.706;12.340;2022-08-19T07:34:54;87066.63;;;18.04;60.65
21623;BME280;10973;46.706;12.340;2022-08-19T07:37:24;87073.34;;;18.09;60.70
21623;BME280;10973;46.706;12.340;2022-08-19T07:39:57;87067.81;;;18.16;60.45
21623;BME280;10973;46.706;12.340;2022-08-19T07:42:25;87070.75;;;18.21;60.53
21623;BME280;10973;46.706;12.340;2022-08-19T07:44:52;87072.53;;;18.24;60.79
21623;BME280;10973;46.706;12.340;2022-08-19T07:47:20;87079.19;;;18.32;60.52
21623;BME280;10973;46.706;12.340;2022-08-19T07:50:10;87086.78;;;18.34;60.66
21623;BME280;10973;46.706;12.340;2022-08-19T07:52:38;87084.34;;;18.39;60.33
21623;BME280;10973;46.706;12.340;2022-08-19T07:55:09;87085.81;;;18.40;59.76
21623;BME280;10973;46.706;12.340;2022-08-19T07:57:57;87086.91;;;18.43;59.22
21623;BME280;10973;46.706;12.340;2022-08-19T08:00:24;87077.34;;;18.45;58.90
21623;BME280;10973;46.706;12.340;2022-08-19T08:02:53;87082.03;;;18.54;58.79
21623;BME280;10973;46.706;12.340;2022-08-19T08:05:23;87082.59;;;18.62;58.95
21623;BME280;10973;46.706;12.340;2022-08-19T08:07:51;87076.44;;;18.65;58.24
21623;BME280;10973;46.706;12.340;2022-08-19T08:10:18;87069.38;;;18.71;57.54
21623;BME280;10973;46.706;12.340;2022-08-19T08:12:47;87079.22;;;18.74;57.68
21623;BME280;10973;46.706;12.340;2022-08-19T08:15:36;87078.91;;;18.84;57.55
21623;BME280;10973;46.706;12.340;2022-08-19T08:18:10;87085.53;;;18.92;57.41
21623;BME280;10973;46.706;12.340;2022-08-19T08:20:38;87077.31;;;18.99;56.60
21623;BME280;10973;46.706;12.340;2022-08-19T08:23:05;87078.28;;;19.05;56.17
21623;BME280;10973;46.706;12.340;2022-08-19T08:25:34;87073.47;;;19.13;56.18
21623;BME280;10973;46.706;12.340;2022-08-19T08:28:03;87071.78;;;19.19;55.76
21623;BME280;10973;46.706;12.340;2022-08-19T08:30:31;87070.81;;;19.26;55.57
21623;BME280;10973;46.706;12.340;2022-08-19T08:32:59;87068.78;;;19.30;56.89
21623;BME280;10973;46.706;12.340;2022-08-19T08:35:29;87073.56;;;19.35;55.90
21623;BME280;10973;46.706;12.340;2022-08-19T08:37:57;87076.47;;;19.40;55.25
21623;BME280;10973;46.706;12.340;2022-08-19T08:40:45;87080.13;;;19.46;55.68
21623;BME280;10973;46.706;12.340;2022-08-19T08:43:33;87073.91;;;19.49;55.25
21623;BME280;10973;46.706;12.340;2022-08-19T08:46:13;87071.31;;;19.58;54.74
21623;BME280;10973;46.706;12.340;2022-08-19T08:51:59;87071.50;;;19.76;56.40
21623;BME280;10973;46.706;12.340;2022-08-19T08:54:38;87070.53;;;19.83;56.11
21623;BME280;10973;46.706;12.340;2022-08-19T08:57:27;87073.72;;;19.90;57.01
21623;BME280;10973;46.706;12.340;2022-08-19T09:00:10;87077.66;;;19.99;56.89
21623;BME280;10973;46.706;12.340;2022-08-19T09:02:43;87081.50;;;20.10;55.90
21623;BME280;10973;46.706;12.340;2022-08-19T09:05:18;87089.00;;;20.03;57.13
21623;BME280;10973;46.706;12.340;2022-08-19T09:08:04;87080.56;;;19.91;54.94
21623;BME280;10973;46.706;12.340;2022-08-19T09:10:53;87086.84;;;19.98;56.06
21623;BME280;10973;46.706;12.340;2022-08-19T09:13:34;87094.34;;;19.90;56.05
21623;BME280;10973;46.706;12.340;2022-08-19T09:16:10;87094.16;;;19.84;55.63
21623;BME280;10973;46.706;12.340;2022-08-19T09:18:53;87085.59;;;19.89;56.62
21623;BME280;10973;46.706;12.340;2022-08-19T09:21:25;87089.34;;;19.92;55.58
21623;BME280;10973;46.706;12.340;2022-08-19T09:24:03;87092.25;;;19.72;56.57
21623;BME280;10973;46.706;12.340;2022-08-19T09:26:31;87103.19;;;19.65;56.48
21623;BME280;10973;46.706;12.340;2022-08-19T09:29:14;87097.50;;;19.63;55.80
21623;BME280;10973;46.706;12.340;2022-08-19T09:31:43;87080.94;;;19.68;55.51
21623;BME280;10973;46.706;12.340;2022-08-19T09:34:10;87087.31;;;19.83;56.19
21623;BME280;10973;46.706;12.340;2022-08-19T09:36:48;87089.66;;;19.94;55.80
21623;BME280;10973;46.706;12.340;2022-08-19T09:39:16;87083.63;;;20.03;55.23
21623;BME280;10973;46.706;12.340;2022-08-19T09:41:43;87085.56;;;20.02;54.19
21623;BME280;10973;46.706;12.340;2022-08-19T09:44:15;87091.66;;;20.03;53.98
21623;BME280;10973;46.706;12.340;2022-08-19T09:46:44;87094.66;;;20.05;54.21
21623;BME280;10973;46.706;12.340;2022-08-19T09:49:11;87087.81;;;20.04;54.04
21623;BME280;10973;46.706;12.340;2022-08-19T09:51:39;87090.38;;;20.07;54.26
21623;BME280;10973;46.706;12.340;2022-08-19T09:54:06;87087.03;;;20.16;54.63
21623;BME280;10973;46.706;12.340;2022-08-19T09:56:37;87083.38;;;20.22;54.38
21623;BME280;10973;46.706;12.340;2022-08-19T09:59:08;87091.63;;;20.28;54.21
21623;BME280;10973;46.706;12.340;2022-08-19T10:01:35;87084.97;;;20.32;54.04
21623;BME280;10973;46.706;12.340;2022-08-19T10:04:03;87089.88;;;20.34;53.31
21623;BME280;10973;46.706;12.340;2022-08-19T10:06:45;87076.94;;;20.32;54.00
21623;BME280;10973;46.706;12.340;2022-08-19T10:09:16;87076.09;;;20.23;52.91
21623;BME280;10973;46.706;12.340;2022-08-19T10:12:01;87063.91;;;20.22;53.16
21623;BME280;10973;46.706;12.340;2022-08-19T10:14:29;87068.69;;;20.27;53.91
21623;BME280;10973;46.706;12.340;2022-08-19T10:16:57;87054.47;;;20.17;53.52
21623;BME280;10973;46.706;12.340;2022-08-19T10:19:25;87057.81;;;20.21;53.27
21623;BME280;10973;46.706;12.340;2022-08-19T10:21:54;87058.31;;;20.29;53.69
21623;BME280;10973;46.706;12.340;2022-08-19T10:24:26;87055.03;;;20.46;53.19
21623;BME280;10973;46.706;12.340;2022-08-19T10:26:54;87057.06;;;20.64;53.49
21623;BME280;10973;46.706;12.340;2022-08-19T10:29:26;87054.75;;;20.75;53.13
21623;BME280;10973;46.706;12.340;2022-08-19T10:32:02;87049.75;;;20.86;52.36
21623;BME280;10973;46.706;12.340;2022-08-19T10:34:30;87049.19;;;20.91;52.61
21623;BME280;10973;46.706;12.340;2022-08-19T10:36:59;87052.22;;;21.02;52.98
21623;BME280;10973;46.706;12.340;2022-08-19T10:39:30;87050.19;;;21.06;52.39
21623;BME280;10973;46.706;12.340;2022-08-19T10:42:10;87062.81;;;21.06;53.03
21623;BME280;10973;46.706;12.340;2022-08-19T10:44:37;87051.38;;;21.05;53.12
21623;BME280;10973;46.706;12.340;2022-08-19T10:47:05;87061.03;;;21.03;52.52
21623;BME280;10973;46.706;12.340;2022-08-19T10:49:52;87061.72;;;20.94;52.11
21623;BME280;10973;46.706;12.340;2022-08-19T10:52:21;87059.66;;;20.98;52.26
21623;BME280;10973;46.706;12.340;2022-08-19T10:54:58;87057.41;;;20.97;52.03
21623;BME280;10973;46.706;12.340;2022-08-19T10:57:31;87070.78;;;20.97;52.45
21623;BME280;10973;46.706;12.340;2022-08-19T11:00:22;87072.09;;;20.92;52.07
21623;BME280;10973;46.706;12.340;2022-08-19T11:02:50;87071.81;;;20.90;52.76
21623;BME280;10973;46.706;12.340;2022-08-19T11:05:18;87066.91;;;20.89;53.18
21623;BME280;10973;46.706;12.340;2022-08-19T11:07:45;87070.44;;;20.86;53.90
21623;BME280;10973;46.706;12.340;2022-08-19T11:10:14;87070.75;;;20.88;53.63
21623;BME280;10973;46.706;12.340;2022-08-19T11:12:47;87070.63;;;20.91;53.20
21623;BME280;10973;46.706;12.340;2022-08-19T11:15:15;87062.44;;;20.95;52.53
21623;BME280;10973;46.706;12.340;2022-08-19T11:17:42;87073.25;;;21.04;52.34
21623;BME280;10973;46.706;12.340;2022-08-19T11:20:14;87067.13;;;21.03;51.15
21623;BME280;10973;46.706;12.340;2022-08-19T11:22:42;87077.22;;;20.99;51.50
21623;BME280;10973;46.706;12.340;2022-08-19T11:25:10;87071.84;;;20.99;52.11
21623;BME280;10973;46.706;12.340;2022-08-19T11:27:42;87066.50;;;20.99;53.01
21623;BME280;10973;46.706;12.340;2022-08-19T11:30:12;87062.94;;;21.02;53.39
21623;BME280;10973;46.706;12.340;2022-08-19T11:32:41;87063.88;;;21.08;52.73
21623;BME280;10973;46.706;12.340;2022-08-19T11:35:15;87067.50;;;21.14;52.17
21623;BME280;10973;46.706;12.340;2022-08-19T11:37:43;87063.53;;;21.28;51.46
21623;BME280;10973;46.706;12.340;2022-08-19T11:40:11;87064.56;;;21.70;51.00
21623;BME280;10973;46.706;12.340;2022-08-19T11:42:38;87060.97;;;22.31;48.56
21623;BME280;10973;46.706;12.340;2022-08-19T11:45:06;87059.75;;;22.96;47.89
21623;BME280;10973;46.706;12.340;2022-08-19T11:47:34;87057.09;;;23.47;46.73
21623;BME280;10973;46.706;12.340;2022-08-19T11:50:01;87061.13;;;23.84;45.34
21623;BME280;10973;46.706;12.340;2022-08-19T11:52:28;87058.88;;;24.15;46.11
21623;BME280;10973;46.706;12.340;2022-08-19T11:54:56;87055.72;;;24.40;44.94
21623;BME280;10973;46.706;12.340;2022-08-19T11:57:23;87056.88;;;24.48;43.49
21623;BME280;10973;46.706;12.340;2022-08-19T11:59:53;87048.81;;;24.48;43.27
21623;BME280;10973;46.706;12.340;2022-08-19T12:02:20;87057.66;;;24.40;43.07
21623;BME280;10973;46.706;12.340;2022-08-19T12:04:47;87056.69;;;24.04;44.09
21623;BME280;10973;46.706;12.340;2022-08-19T12:07:15;87058.53;;;23.66;44.36
21623;BME280;10973;46.706;12.340;2022-08-19T12:09:42;87047.88;;;23.29;45.73
21623;BME280;10973;46.706;12.340;2022-08-19T12:12:11;87058.25;;;23.04;47.09
21623;BME280;10973;46.706;12.340;2022-08-19T12:14:39;87063.66;;;22.58;48.24
21623;BME280;10973;46.706;12.340;2022-08-19T12:17:06;87066.50;;;22.28;49.03
21623;BME280;10973;46.706;12.340;2022-08-19T12:19:36;87059.19;;;22.10;50.36
21623;BME280;10973;46.706;12.340;2022-08-19T12:22:03;87071.69;;;22.04;50.23
21623;BME280;10973;46.706;12.340;2022-08-19T12:24:31;87077.03;;;21.95;50.79
21623;BME280;10973;46.706;12.340;2022-08-19T12:26:59;87082.97;;;21.90;51.57
21623;BME280;10973;46.706;12.340;2022-08-19T12:29:29;87075.31;;;21.79;52.04
21623;BME280;10973;46.706;12.340;2022-08-19T12:31:58;87088.38;;;21.59;52.96
21623;BME280;10973;46.706;12.340;2022-08-19T12:34:28;87097.56;;;21.49;54.92
21623;BME280;10973;46.706;12.340;2022-08-19T12:36:58;87096.22;;;21.45;56.27
21623;BME280;10973;46.706;12.340;2022-08-19T12:39:25;87096.47;;;21.38;57.05
21623;BME280;10973;46.706;12.340;2022-08-19T12:41:53;87099.00;;;21.32;57.23
21623;BME280;10973;46.706;12.340;2022-08-19T12:44:22;87113.72;;;21.27;57.71
21623;BME280;10973;46.706;12.340;2022-08-19T12:46:56;87105.06;;;21.23;57.86
21623;BME280;10973;46.706;12.340;2022-08-19T12:49:24;87105.19;;;21.20;57.90
21623;BME280;10973;46.706;12.340;2022-08-19T12:52:11;87112.16;;;21.17;57.59
21623;BME280;10973;46.706;12.340;2022-08-19T12:54:40;87114.50;;;21.06;57.61
21623;BME280;10973;46.706;12.340;2022-08-19T12:57:09;87112.00;;;20.69;57.37
21623;BME280;10973;46.706;12.340;2022-08-19T12:59:37;87113.75;;;20.63;58.01
21623;BME280;10973;46.706;12.340;2022-08-19T13:02:07;87114.06;;;20.65;58.15
21623;BME280;10973;46.706;12.340;2022-08-19T13:04:35;87107.66;;;20.62;56.90
21623;BME280;10973;46.706;12.340;2022-08-19T13:07:03;87113.00;;;20.62;59.59
21623;BME280;10973;46.706;12.340;2022-08-19T13:09:30;87114.63;;;20.59;59.36
21623;BME280;10973;46.706;12.340;2022-08-19T13:11:57;87113.25;;;20.55;58.20